sensor_id;sensor_type;location;lat;lon;timestamp;P1;durP1;ratioP1;P2;durP2;ratioP2
7359;SDS011;3720;48.274;7.796;2022-09-13T00:01:14;4.68;;;1.75;;
7359;SDS011;3720;48.274;7.796;2022-09-13T00:03:47;2.15;;;1.70;;
7359;SDS011;3720;48.274;7.796;2022-09-13T00:06:20;4.63;;;2.00;;
7359;SDS011;3720;48.274;7.796;2022-09-13T00:08:53;3.38;;;2.00;;
7359;SDS011;3720;48.274;7.796;2022-09-13T00:11:25;4.95;;;2.20;;
7359;SDS011;3720;48.274;7.796;2022-09-13T00:13:59;1.92;;;1.65;;
7359;SDS011;3720;48.274;7.796;2022-09-13T00:16:31;4.15;;;2.10;;
7359;SDS011;3720;48.274;7.796;2022-09-13T00:19:03;2.17;;;1.95;;
7359;SDS011;3720;48.274;7.796;2022-09-13T00:21:37;2.10;;;1.80;;
7359;SDS011;3720;48.274;7.796;2022-09-13T00:24:08;2.50;;;1.83;;
7359;SDS011;3720;48.274;7.796;2022-09-13T00:26:41;2.58;;;1.60;;
7359;SDS011;3720;48.274;7.796;2022-09-13T00:29:12;4.70;;;1.90;;
7359;SDS011;3720;48.274;7.796;2022-09-13T00:31:44;2.00;;;1.67;;
7359;SDS011;3720;48.274;7.796;2022-09-13T00:34:16;2.85;;;2.00;;
7359;SDS011;3720;48.274;7.796;2022-09-13T00:36:49;3.35;;;1.70;;
7359;SDS011;3720;48.274;7.796;2022-09-13T00:39:21;3.60;;;1.80;;
7359;SDS011;3720;48.274;7.796;2022-09-13T00:41:53;3.75;;;1.80;;
7359;SDS011;3720;48.274;7.796;2022-09-13T00:47:25;2.60;;;1.80;;
7359;SDS011;3720;48.274;7.796;2022-09-13T00:50:06;2.10;;;1.60;;
7359;SDS011;3720;48.274;7.796;2022-09-13T00:52:43;2.05;;;1.50;;
7359;SDS011;3720;48.274;7.796;2022-09-13T00:55:22;4.95;;;1.98;;
7359;SDS011;3720;48.274;7.796;2022-09-13T00:57:59;1.95;;;1.80;;
7359;SDS011;3720;48.274;7.796;2022-09-13T01:00:35;4.75;;;2.00;;
7359;SDS011;3720;48.274;7.796;2022-09-13T01:03:09;2.75;;;2.00;;
7359;SDS011;3720;48.274;7.796;2022-09-13T01:05:45;4.97;;;2.10;;
7359;SDS011;3720;48.274;7.796;2022-09-13T01:08:21;4.90;;;2.22;;
7359;SDS011;3720;48.274;7.796;2022-09-13T01:10:53;6.03;;;2.00;;
7359;SDS011;3720;48.274;7.796;2022-09-13T01:13:29;3.78;;;2.03;;
7359;SDS011;3720;48.274;7.796;2022-09-13T01:16:03;2.45;;;1.80;;
7359;SDS011;3720;48.274;7.796;2022-09-13T01:18:35;4.53;;;2.28;;
7359;SDS011;3720;48.274;7.796;2022-09-13T01:21:14;3.58;;;2.08;;
7359;SDS011;3720;48.274;7.796;2022-09-13T01:24:21;3.33;;;2.00;;
7359;SDS011;3720;48.274;7.796;2022-09-13T01:27:29;3.97;;;2.03;;
7359;SDS011;3720;48.274;7.796;2022-09-13T01:30:11;2.38;;;2.00;;
7359;SDS011;3720;48.274;7.796;2022-09-13T01:35:42;3.28;;;2.15;;
7359;SDS011;3720;48.274;7.796;2022-09-13T01:38:30;3.03;;;2.10;;
7359;SDS011;3720;48.274;7.796;2022-09-13T01:41:14;3.30;;;1.95;;
7359;SDS011;3720;48.274;7.796;2022-09-13T01:44:02;2.85;;;2.00;;
7359;SDS011;3720;48.274;7.796;2022-09-13T01:46:44;3.55;;;2.00;;
7359;SDS011;3720;48.274;7.796;2022-09-13T01:49:20;4.07;;;2.08;;
7359;SDS011;3720;48.274;7.796;2022-09-13T01:51:59;5.32;;;2.10;;
7359;SDS011;3720;48.274;7.796;2022-09-13T01:54:35;2.75;;;1.90;;
7359;SDS011;3720;48.274;7.796;2022-09-13T01:57:11;2.08;;;1.88;;
7359;SDS011;3720;48.274;7.796;2022-09-13T01:59:47;3.65;;;1.90;;
7359;SDS011;3720;48.274;7.796;2022-09-13T02:02:25;2.90;;;1.80;;
7359;SDS011;3720;48.274;7.796;2022-09-13T02:05:03;4.15;;;1.70;;
7359;SDS011;3720;48.274;7.796;2022-09-13T02:07:40;3.00;;;1.60;;
7359;SDS011;3720;48.274;7.796;2022-09-13T02:10:15;3.50;;;1.85;;
7359;SDS011;3720;48.274;7.796;2022-09-13T02:12:52;1.70;;;1.60;;
7359;SDS011;3720;48.274;7.796;2022-09-13T02:15:28;2.63;;;1.67;;
7359;SDS011;3720;48.274;7.796;2022-09-13T02:18:07;1.85;;;1.50;;
7359;SDS011;3720;48.274;7.796;2022-09-13T02:20:43;1.55;;;1.30;;
7359;SDS011;3720;48.274;7.796;2022-09-13T02:23:19;2.00;;;1.58;;
7359;SDS011;3720;48.274;7.796;2022-09-13T02:25:56;2.25;;;1.60;;
7359;SDS011;3720;48.274;7.796;2022-09-13T02:28:32;3.67;;;1.58;;
7359;SDS011;3720;48.274;7.796;2022-09-13T02:31:08;2.10;;;1.48;;
7359;SDS011;3720;48.274;7.796;2022-09-13T02:33:44;3.25;;;1.50;;
7359;SDS011;3720;48.274;7.796;2022-09-13T02:36:20;2.70;;;1.52;;
7359;SDS011;3720;48.274;7.796;2022-09-13T02:38:55;4.63;;;1.65;;
7359;SDS011;3720;48.274;7.796;2022-09-13T02:41:32;6.38;;;1.63;;
7359;SDS011;3720;48.274;7.796;2022-09-13T02:44:09;4.05;;;1.50;;
7359;SDS011;3720;48.274;7.796;2022-09-13T02:46:53;2.95;;;1.50;;
7359;SDS011;3720;48.274;7.796;2022-09-13T02:49:40;4.43;;;1.40;;
7359;SDS011;3720;48.274;7.796;2022-09-13T02:52:21;3.03;;;1.70;;
7359;SDS011;3720;48.274;7.796;2022-09-13T02:55:04;1.95;;;1.40;;
7359;SDS011;3720;48.274;7.796;2022-09-13T02:57:47;2.03;;;1.45;;
7359;SDS011;3720;48.274;7.796;2022-09-13T03:00:24;2.97;;;1.60;;
7359;SDS011;3720;48.274;7.796;2022-09-13T03:02:58;3.50;;;1.60;;
7359;SDS011;3720;48.274;7.796;2022-09-13T03:05:35;2.80;;;1.60;;
7359;SDS011;3720;48.274;7.796;2022-09-13T03:08:09;4.28;;;1.65;;
7359;SDS011;3720;48.274;7.796;2022-09-13T03:10:47;2.33;;;1.67;;
7359;SDS011;3720;48.274;7.796;2022-09-13T03:16:36;4.03;;;1.60;;
7359;SDS011;3720;48.274;7.796;2022-09-13T03:19:27;3.10;;;1.52;;
7359;SDS011;3720;48.274;7.796;2022-09-13T03:22:19;3.50;;;1.60;;
7359;SDS011;3720;48.274;7.796;2022-09-13T03:25:02;2.28;;;1.60;;
7359;SDS011;3720;48.274;7.796;2022-09-13T03:27:39;2.97;;;1.58;;
7359;SDS011;3720;48.274;7.796;2022-09-13T03:30:17;4.43;;;1.70;;
7359;SDS011;3720;48.274;7.796;2022-09-13T03:32:50;3.10;;;1.67;;
7359;SDS011;3720;48.274;7.796;2022-09-13T03:35:33;4.68;;;1.60;;
7359;SDS011;3720;48.274;7.796;2022-09-13T03:38:11;2.72;;;1.60;;
7359;SDS011;3720;48.274;7.796;2022-09-13T03:40:47;3.47;;;1.83;;
7359;SDS011;3720;48.274;7.796;2022-09-13T03:43:22;2.53;;;1.88;;
7359;SDS011;3720;48.274;7.796;2022-09-13T03:45:56;4.70;;;2.10;;
7359;SDS011;3720;48.274;7.796;2022-09-13T03:48:33;4.15;;;2.00;;
7359;SDS011;3720;48.274;7.796;2022-09-13T03:51:07;5.72;;;2.22;;
7359;SDS011;3720;48.274;7.796;2022-09-13T03:53:44;3.60;;;2.10;;
7359;SDS011;3720;48.274;7.796;2022-09-13T03:56:19;2.42;;;2.00;;
7359;SDS011;3720;48.274;7.796;2022-09-13T03:58:51;2.65;;;1.98;;
7359;SDS011;3720;48.274;7.796;2022-09-13T04:01:23;4.00;;;1.80;;
7359;SDS011;3720;48.274;7.796;2022-09-13T04:03:55;4.10;;;2.20;;
7359;SDS011;3720;48.274;7.796;2022-09-13T04:06:28;4.35;;;2.40;;
7359;SDS011;3720;48.274;7.796;2022-09-13T04:09:01;4.65;;;2.13;;
7359;SDS011;3720;48.274;7.796;2022-09-13T04:11:33;2.70;;;2.10;;
7359;SDS011;3720;48.274;7.796;2022-09-13T04:14:05;5.07;;;2.30;;
7359;SDS011;3720;48.274;7.796;2022-09-13T04:16:37;8.98;;;2.17;;
7359;SDS011;3720;48.274;7.796;2022-09-13T04:19:09;3.90;;;2.22;;
7359;SDS011;3720;48.274;7.796;2022-09-13T04:21:41;3.22;;;2.28;;
7359;SDS011;3720;48.274;7.796;2022-09-13T04:24:14;4.57;;;2.38;;
7359;SDS011;3720;48.274;7.796;2022-09-13T04:26:47;3.53;;;2.20;;
7359;SDS011;3720;48.274;7.796;2022-09-13T04:29:20;4.88;;;2.45;;
7359;SDS011;3720;48.274;7.796;2022-09-13T04:31:54;2.40;;;2.13;;
7359;SDS011;3720;48.274;7.796;2022-09-13T04:34:26;3.10;;;2.10;;
7359;SDS011;3720;48.274;7.796;2022-09-13T04:36:57;2.95;;;2.17;;
7359;SDS011;3720;48.274;7.796;2022-09-13T04:39:31;3.72;;;2.33;;
7359;SDS011;3720;48.274;7.796;2022-09-13T04:42:03;4.95;;;2.80;;
7359;SDS011;3720;48.274;7.796;2022-09-13T04:44:36;3.40;;;2.17;;
7359;SDS011;3720;48.274;7.796;2022-09-13T04:47:08;5.03;;;2.53;;
7359;SDS011;3720;48.274;7.796;2022-09-13T04:49:40;4.28;;;2.25;;
7359;SDS011;3720;48.274;7.796;2022-09-13T04:52:12;4.63;;;2.40;;
7359;SDS011;3720;48.274;7.796;2022-09-13T04:54:45;4.88;;;2.20;;
7359;SDS011;3720;48.274;7.796;2022-09-13T04:57:17;3.45;;;2.00;;
7359;SDS011;3720;48.274;7.796;2022-09-13T04:59:49;3.80;;;2.30;;
7359;SDS011;3720;48.274;7.796;2022-09-13T05:02:21;4.97;;;2.10;;
7359;SDS011;3720;48.274;7.796;2022-09-13T05:04:53;4.47;;;2.20;;
7359;SDS011;3720;48.274;7.796;2022-09-13T05:07:25;3.67;;;2.05;;
7359;SDS011;3720;48.274;7.796;2022-09-13T05:09:58;3.85;;;2.10;;
7359;SDS011;3720;48.274;7.796;2022-09-13T05:12:30;3.92;;;2.00;;
7359;SDS011;3720;48.274;7.796;2022-09-13T05:15:02;4.90;;;2.00;;
7359;SDS011;3720;48.274;7.796;2022-09-13T05:17:36;3.63;;;2.05;;
7359;SDS011;3720;48.274;7.796;2022-09-13T05:20:08;2.50;;;1.80;;
7359;SDS011;3720;48.274;7.796;2022-09-13T05:22:40;4.43;;;2.08;;
7359;SDS011;3720;48.274;7.796;2022-09-13T05:25:14;2.55;;;1.98;;
7359;SDS011;3720;48.274;7.796;2022-09-13T05:27:46;3.03;;;1.77;;
7359;SDS011;3720;48.274;7.796;2022-09-13T05:30:18;2.25;;;1.75;;
7359;SDS011;3720;48.274;7.796;2022-09-13T05:32:50;2.00;;;1.70;;
7359;SDS011;3720;48.274;7.796;2022-09-13T05:35:21;2.90;;;1.90;;
7359;SDS011;3720;48.274;7.796;2022-09-13T05:37:53;2.85;;;1.90;;
7359;SDS011;3720;48.274;7.796;2022-09-13T05:40:26;3.17;;;2.15;;
7359;SDS011;3720;48.274;7.796;2022-09-13T05:42:58;4.45;;;2.13;;
7359;SDS011;3720;48.274;7.796;2022-09-13T05:45:30;3.90;;;2.28;;
7359;SDS011;3720;48.274;7.796;2022-09-13T05:48:02;6.15;;;2.15;;
7359;SDS011;3720;48.274;7.796;2022-09-13T05:50:37;6.70;;;2.10;;
7359;SDS011;3720;48.274;7.796;2022-09-13T05:53:09;6.88;;;2.20;;
7359;SDS011;3720;48.274;7.796;2022-09-13T05:55:42;3.03;;;2.10;;
7359;SDS011;3720;48.274;7.796;2022-09-13T05:58:14;3.20;;;2.10;;
7359;SDS011;3720;48.274;7.796;2022-09-13T06:00:51;7.05;;;2.30;;
7359;SDS011;3720;48.274;7.796;2022-09-13T06:03:23;3.72;;;2.30;;
7359;SDS011;3720;48.274;7.796;2022-09-13T06:05:56;3.38;;;2.30;;
7359;SDS011;3720;48.274;7.796;2022-09-13T06:08:28;4.60;;;2.40;;
7359;SDS011;3720;48.274;7.796;2022-09-13T06:11:03;6.10;;;2.55;;
7359;SDS011;3720;48.274;7.796;2022-09-13T06:13:36;4.60;;;2.45;;
7359;SDS011;3720;48.274;7.796;2022-09-13T06:16:10;5.13;;;2.63;;
7359;SDS011;3720;48.274;7.796;2022-09-13T06:18:44;4.90;;;2.20;;
7359;SDS011;3720;48.274;7.796;2022-09-13T06:21:16;4.30;;;2.50;;
7359;SDS011;3720;48.274;7.796;2022-09-13T06:23:50;3.75;;;2.40;;
7359;SDS011;3720;48.274;7.796;2022-09-13T06:26:25;6.68;;;2.30;;
7359;SDS011;3720;48.274;7.796;2022-09-13T06:28:58;4.85;;;2.30;;
7359;SDS011;3720;48.274;7.796;2022-09-13T06:31:30;3.10;;;2.22;;
7359;SDS011;3720;48.274;7.796;2022-09-13T06:34:02;4.97;;;2.35;;
7359;SDS011;3720;48.274;7.796;2022-09-13T06:36:34;3.58;;;2.10;;
7359;SDS011;3720;48.274;7.796;2022-09-13T06:39:07;4.70;;;2.10;;
7359;SDS011;3720;48.274;7.796;2022-09-13T06:41:40;4.38;;;2.10;;
7359;SDS011;3720;48.274;7.796;2022-09-13T06:44:12;2.28;;;2.05;;
7359;SDS011;3720;48.274;7.796;2022-09-13T06:46:44;2.65;;;1.90;;
7359;SDS011;3720;48.274;7.796;2022-09-13T06:49:16;5.47;;;2.17;;
7359;SDS011;3720;48.274;7.796;2022-09-13T06:51:48;2.60;;;2.13;;
7359;SDS011;3720;48.274;7.796;2022-09-13T06:54:20;3.70;;;1.92;;
7359;SDS011;3720;48.274;7.796;2022-09-13T06:56:54;4.93;;;2.20;;
7359;SDS011;3720;48.274;7.796;2022-09-13T06:59:25;3.45;;;2.22;;
7359;SDS011;3720;48.274;7.796;2022-09-13T07:01:57;2.92;;;1.77;;
7359;SDS011;3720;48.274;7.796;2022-09-13T07:04:29;3.03;;;1.80;;
7359;SDS011;3720;48.274;7.796;2022-09-13T07:07:01;3.42;;;1.92;;
7359;SDS011;3720;48.274;7.796;2022-09-13T07:09:33;3.58;;;1.73;;
7359;SDS011;3720;48.274;7.796;2022-09-13T07:12:06;3.22;;;1.70;;
7359;SDS011;3720;48.274;7.796;2022-09-13T07:14:38;2.22;;;1.65;;
7359;SDS011;3720;48.274;7.796;2022-09-13T07:17:10;3.78;;;1.70;;
7359;SDS011;3720;48.274;7.796;2022-09-13T07:19:42;2.28;;;1.60;;
7359;SDS011;3720;48.274;7.796;2022-09-13T07:22:14;4.10;;;1.80;;
7359;SDS011;3720;48.274;7.796;2022-09-13T07:24:46;2.13;;;1.35;;
7359;SDS011;3720;48.274;7.796;2022-09-13T07:27:19;2.75;;;1.67;;
7359;SDS011;3720;48.274;7.796;2022-09-13T07:29:51;2.65;;;1.90;;
7359;SDS011;3720;48.274;7.796;2022-09-13T07:32:23;1.80;;;1.63;;
7359;SDS011;3720;48.274;7.796;2022-09-13T07:34:55;3.58;;;1.40;;
7359;SDS011;3720;48.274;7.796;2022-09-13T07:37:27;5.00;;;1.80;;
7359;SDS011;3720;48.274;7.796;2022-09-13T07:39:59;3.15;;;1.50;;
7359;SDS011;3720;48.274;7.796;2022-09-13T07:42:32;4.13;;;1.70;;
7359;SDS011;3720;48.274;7.796;2022-09-13T07:45:04;3.88;;;1.70;;
7359;SDS011;3720;48.274;7.796;2022-09-13T07:47:36;4.75;;;2.00;;
7359;SDS011;3720;48.274;7.796;2022-09-13T07:50:08;2.65;;;1.92;;
7359;SDS011;3720;48.274;7.796;2022-09-13T07:52:40;3.75;;;2.00;;
7359;SDS011;3720;48.274;7.796;2022-09-13T07:55:12;2.97;;;2.10;;
7359;SDS011;3720;48.274;7.796;2022-09-13T07:57:46;4.20;;;2.30;;
7359;SDS011;3720;48.274;7.796;2022-09-13T08:00:18;5.20;;;2.03;;
7359;SDS011;3720;48.274;7.796;2022-09-13T08:02:50;5.28;;;2.40;;
7359;SDS011;3720;48.274;7.796;2022-09-13T08:05:22;4.40;;;2.00;;
7359;SDS011;3720;48.274;7.796;2022-09-13T08:07:54;4.05;;;2.10;;
7359;SDS011;3720;48.274;7.796;2022-09-13T08:10:26;8.10;;;2.67;;
7359;SDS011;3720;48.274;7.796;2022-09-13T08:12:59;8.65;;;2.47;;
7359;SDS011;3720;48.274;7.796;2022-09-13T08:15:31;3.08;;;2.20;;
7359;SDS011;3720;48.274;7.796;2022-09-13T08:18:04;4.15;;;2.33;;
7359;SDS011;3720;48.274;7.796;2022-09-13T08:20:36;3.63;;;2.13;;
7359;SDS011;3720;48.274;7.796;2022-09-13T08:23:09;6.05;;;2.53;;
7359;SDS011;3720;48.274;7.796;2022-09-13T08:25:42;3.92;;;2.20;;
7359;SDS011;3720;48.274;7.796;2022-09-13T08:28:16;6.03;;;2.40;;
7359;SDS011;3720;48.274;7.796;2022-09-13T08:30:50;4.38;;;2.13;;
7359;SDS011;3720;48.274;7.796;2022-09-13T08:33:22;8.68;;;2.63;;
7359;SDS011;3720;48.274;7.796;2022-09-13T08:35:54;8.13;;;2.60;;
7359;SDS011;3720;48.274;7.796;2022-09-13T08:38:27;5.53;;;2.22;;
7359;SDS011;3720;48.274;7.796;2022-09-13T08:41:00;4.35;;;2.13;;
7359;SDS011;3720;48.274;7.796;2022-09-13T08:43:42;4.72;;;2.40;;
7359;SDS011;3720;48.274;7.796;2022-09-13T08:46:20;6.00;;;2.35;;
7359;SDS011;3720;48.274;7.796;2022-09-13T08:48:58;5.68;;;2.60;;
7359;SDS011;3720;48.274;7.796;2022-09-13T08:51:35;5.20;;;2.35;;
7359;SDS011;3720;48.274;7.796;2022-09-13T08:54:12;4.68;;;2.25;;
7359;SDS011;3720;48.274;7.796;2022-09-13T08:56:50;4.22;;;2.30;;
7359;SDS011;3720;48.274;7.796;2022-09-13T08:59:31;6.45;;;2.28;;
7359;SDS011;3720;48.274;7.796;2022-09-13T09:02:18;4.75;;;1.90;;
7359;SDS011;3720;48.274;7.796;2022-09-13T09:05:01;5.63;;;2.00;;
7359;SDS011;3720;48.274;7.796;2022-09-13T09:07:41;2.50;;;1.80;;
7359;SDS011;3720;48.274;7.796;2022-09-13T09:10:16;3.40;;;1.88;;
7359;SDS011;3720;48.274;7.796;2022-09-13T09:12:51;2.42;;;1.85;;
7359;SDS011;3720;48.274;7.796;2022-09-13T09:15:28;6.15;;;2.10;;
7359;SDS011;3720;48.274;7.796;2022-09-13T09:18:05;2.63;;;1.90;;
7359;SDS011;3720;48.274;7.796;2022-09-13T09:20:44;6.15;;;1.98;;
7359;SDS011;3720;48.274;7.796;2022-09-13T09:23:19;3.03;;;1.70;;
7359;SDS011;3720;48.274;7.796;2022-09-13T09:25:55;3.92;;;1.80;;
7359;SDS011;3720;48.274;7.796;2022-09-13T09:28:28;2.30;;;1.50;;
7359;SDS011;3720;48.274;7.796;2022-09-13T09:31:03;4.35;;;1.60;;
7359;SDS011;3720;48.274;7.796;2022-09-13T09:33:43;2.70;;;1.50;;
7359;SDS011;3720;48.274;7.796;2022-09-13T09:36:22;3.20;;;1.40;;
7359;SDS011;3720;48.274;7.796;2022-09-13T09:39:02;2.42;;;1.38;;
7359;SDS011;3720;48.274;7.796;2022-09-13T09:41:34;4.60;;;1.80;;
7359;SDS011;3720;48.274;7.796;2022-09-13T09:44:13;4.10;;;1.50;;
7359;SDS011;3720;48.274;7.796;2022-09-13T09:46:50;2.90;;;1.30;;
7359;SDS011;3720;48.274;7.796;2022-09-13T09:49:30;3.22;;;1.38;;
7359;SDS011;3720;48.274;7.796;2022-09-13T09:52:24;1.95;;;1.20;;
7359;SDS011;3720;48.274;7.796;2022-09-13T09:55:06;2.20;;;1.65;;
7359;SDS011;3720;48.274;7.796;2022-09-13T09:57:52;2.88;;;1.45;;
7359;SDS011;3720;48.274;7.796;2022-09-13T10:00:26;2.33;;;1.45;;
7359;SDS011;3720;48.274;7.796;2022-09-13T10:03:02;3.00;;;1.30;;
7359;SDS011;3720;48.274;7.796;2022-09-13T10:05:36;2.35;;;1.40;;
7359;SDS011;3720;48.274;7.796;2022-09-13T10:08:20;2.00;;;1.38;;
7359;SDS011;3720;48.274;7.796;2022-09-13T10:10:57;3.35;;;1.52;;
7359;SDS011;3720;48.274;7.796;2022-09-13T10:13:31;2.10;;;1.30;;
7359;SDS011;3720;48.274;7.796;2022-09-13T10:16:04;3.20;;;1.30;;
7359;SDS011;3720;48.274;7.796;2022-09-13T10:18:46;1.60;;;1.40;;
7359;SDS011;3720;48.274;7.796;2022-09-13T10:21:21;4.15;;;1.30;;
7359;SDS011;3720;48.274;7.796;2022-09-13T10:24:14;2.88;;;1.27;;
7359;SDS011;3720;48.274;7.796;2022-09-13T10:26:47;4.93;;;1.52;;
7359;SDS011;3720;48.274;7.796;2022-09-13T10:29:19;2.45;;;1.55;;
7359;SDS011;3720;48.274;7.796;2022-09-13T10:31:52;1.30;;;1.20;;
7359;SDS011;3720;48.274;7.796;2022-09-13T10:34:28;2.67;;;1.30;;
7359;SDS011;3720;48.274;7.796;2022-09-13T10:37:04;3.80;;;1.48;;
7359;SDS011;3720;48.274;7.796;2022-09-13T10:42:37;2.58;;;1.30;;
7359;SDS011;3720;48.274;7.796;2022-09-13T10:45:18;2.63;;;1.27;;
7359;SDS011;3720;48.274;7.796;2022-09-13T10:47:54;1.75;;;1.20;;
7359;SDS011;3720;48.274;7.796;2022-09-13T10:50:30;4.82;;;1.38;;
7359;SDS011;3720;48.274;7.796;2022-09-13T10:53:07;3.05;;;1.30;;
7359;SDS011;3720;48.274;7.796;2022-09-13T10:56:03;5.22;;;1.70;;
7359;SDS011;3720;48.274;7.796;2022-09-13T10:58:36;1.80;;;1.30;;
7359;SDS011;3720;48.274;7.796;2022-09-13T11:01:24;2.55;;;1.20;;
7359;SDS011;3720;48.274;7.796;2022-09-13T11:07:28;3.38;;;1.33;;
7359;SDS011;3720;48.274;7.796;2022-09-13T11:10:10;3.25;;;1.40;;
7359;SDS011;3720;48.274;7.796;2022-09-13T11:12:49;1.58;;;1.30;;
7359;SDS011;3720;48.274;7.796;2022-09-13T11:15:30;2.97;;;1.23;;
7359;SDS011;3720;48.274;7.796;2022-09-13T11:18:16;1.90;;;1.20;;
7359;SDS011;3720;48.274;7.796;2022-09-13T11:21:09;2.60;;;1.20;;
7359;SDS011;3720;48.274;7.796;2022-09-13T11:27:09;2.80;;;1.10;;
7359;SDS011;3720;48.274;7.796;2022-09-13T11:29:56;3.78;;;1.40;;
7359;SDS011;3720;48.274;7.796;2022-09-13T11:32:43;3.28;;;1.70;;
7359;SDS011;3720;48.274;7.796;2022-09-13T11:35:40;4.07;;;1.30;;
7359;SDS011;3720;48.274;7.796;2022-09-13T11:38:27;2.97;;;1.17;;
7359;SDS011;3720;48.274;7.796;2022-09-13T11:41:08;1.40;;;1.10;;
7359;SDS011;3720;48.274;7.796;2022-09-13T11:43:53;3.17;;;1.50;;
7359;SDS011;3720;48.274;7.796;2022-09-13T11:46:37;3.83;;;1.38;;
7359;SDS011;3720;48.274;7.796;2022-09-13T11:49:20;4.93;;;1.10;;
7359;SDS011;3720;48.274;7.796;2022-09-13T11:52:15;5.90;;;1.30;;
7359;SDS011;3720;48.274;7.796;2022-09-13T11:54:58;2.95;;;1.13;;
7359;SDS011;3720;48.274;7.796;2022-09-13T11:57:39;2.42;;;1.10;;
7359;SDS011;3720;48.274;7.796;2022-09-13T12:00:20;1.42;;;1.20;;
7359;SDS011;3720;48.274;7.796;2022-09-13T12:02:58;2.53;;;1.13;;
7359;SDS011;3720;48.274;7.796;2022-09-13T12:05:38;1.88;;;1.30;;
7359;SDS011;3720;48.274;7.796;2022-09-13T12:08:16;2.03;;;1.13;;
7359;SDS011;3720;48.274;7.796;2022-09-13T12:10:51;1.65;;;1.00;;
7359;SDS011;3720;48.274;7.796;2022-09-13T12:13:28;1.73;;;1.10;;
7359;SDS011;3720;48.274;7.796;2022-09-13T12:16:05;4.32;;;1.17;;
7359;SDS011;3720;48.274;7.796;2022-09-13T12:18:39;2.78;;;1.20;;
7359;SDS011;3720;48.274;7.796;2022-09-13T12:21:15;1.45;;;1.00;;
7359;SDS011;3720;48.274;7.796;2022-09-13T12:23:50;1.70;;;1.02;;
7359;SDS011;3720;48.274;7.796;2022-09-13T12:26:32;2.22;;;1.38;;
7359;SDS011;3720;48.274;7.796;2022-09-13T12:29:11;3.22;;;1.10;;
7359;SDS011;3720;48.274;7.796;2022-09-13T12:31:49;3.97;;;1.30;;
7359;SDS011;3720;48.274;7.796;2022-09-13T12:34:32;3.63;;;1.50;;
7359;SDS011;3720;48.274;7.796;2022-09-13T12:37:16;3.40;;;1.40;;
7359;SDS011;3720;48.274;7.796;2022-09-13T12:40:14;4.13;;;1.52;;
7359;SDS011;3720;48.274;7.796;2022-09-13T12:45:58;5.80;;;1.40;;
7359;SDS011;3720;48.274;7.796;2022-09-13T12:51:45;2.70;;;1.48;;
7359;SDS011;3720;48.274;7.796;2022-09-13T12:54:35;1.80;;;1.33;;
7359;SDS011;3720;48.274;7.796;2022-09-13T12:57:25;4.15;;;1.10;;
7359;SDS011;3720;48.274;7.796;2022-09-13T13:00:09;2.40;;;1.20;;
7359;SDS011;3720;48.274;7.796;2022-09-13T13:02:51;2.50;;;1.20;;
7359;SDS011;3720;48.274;7.796;2022-09-13T13:05:32;2.35;;;1.20;;
7359;SDS011;3720;48.274;7.796;2022-09-13T13:10:58;1.83;;;1.05;;
7359;SDS011;3720;48.274;7.796;2022-09-13T13:13:33;4.03;;;1.10;;
7359;SDS011;3720;48.274;7.796;2022-09-13T13:31:10;2.70;;;1.23;;
7359;SDS011;3720;48.274;7.796;2022-09-13T13:34:30;3.33;;;1.15;;
7359;SDS011;3720;48.274;7.796;2022-09-13T13:40:19;3.38;;;1.30;;
7359;SDS011;3720;48.274;7.796;2022-09-13T13:43:16;3.17;;;1.33;;
7359;SDS011;3720;48.274;7.796;2022-09-13T13:46:23;2.35;;;1.30;;
7359;SDS011;3720;48.274;7.796;2022-09-13T14:01:10;3.58;;;1.40;;
7359;SDS011;3720;48.274;7.796;2022-09-13T14:03:54;3.58;;;1.45;;
7359;SDS011;3720;48.274;7.796;2022-09-13T14:06:47;2.88;;;1.50;;
7359;SDS011;3720;48.274;7.796;2022-09-13T14:09:29;3.80;;;1.48;;
7359;SDS011;3720;48.274;7.796;2022-09-13T14:12:15;2.78;;;1.45;;
7359;SDS011;3720;48.274;7.796;2022-09-13T14:15:05;4.10;;;1.70;;
7359;SDS011;3720;48.274;7.796;2022-09-13T14:17:50;4.53;;;1.30;;
7359;SDS011;3720;48.274;7.796;2022-09-13T14:20:35;2.78;;;1.38;;
7359;SDS011;3720;48.274;7.796;2022-09-13T14:23:10;4.38;;;1.90;;
7359;SDS011;3720;48.274;7.796;2022-09-13T14:28:16;3.17;;;1.33;;
7359;SDS011;3720;48.274;7.796;2022-09-13T14:30:54;3.15;;;1.40;;
7359;SDS011;3720;48.274;7.796;2022-09-13T14:33:28;3.33;;;1.30;;
7359;SDS011;3720;48.274;7.796;2022-09-13T14:36:04;2.10;;;1.17;;
7359;SDS011;3720;48.274;7.796;2022-09-13T14:38:45;3.50;;;1.40;;
7359;SDS011;3720;48.274;7.796;2022-09-13T14:41:19;2.90;;;1.40;;
7359;SDS011;3720;48.274;7.796;2022-09-13T14:43:52;1.90;;;1.30;;
7359;SDS011;3720;48.274;7.796;2022-09-13T14:46:26;3.30;;;1.20;;
7359;SDS011;3720;48.274;7.796;2022-09-13T14:49:05;2.95;;;1.25;;
7359;SDS011;3720;48.274;7.796;2022-09-13T14:51:41;3.40;;;1.30;;
7359;SDS011;3720;48.274;7.796;2022-09-13T14:54:16;2.45;;;1.30;;
7359;SDS011;3720;48.274;7.796;2022-09-13T14:56:51;2.35;;;1.20;;
7359;SDS011;3720;48.274;7.796;2022-09-13T14:59:27;3.05;;;1.17;;
7359;SDS011;3720;48.274;7.796;2022-09-13T15:02:05;2.55;;;1.40;;
7359;SDS011;3720;48.274;7.796;2022-09-13T15:04:48;5.15;;;1.45;;
7359;SDS011;3720;48.274;7.796;2022-09-13T15:07:22;2.97;;;1.20;;
7359;SDS011;3720;48.274;7.796;2022-09-13T15:10:04;3.83;;;1.20;;
7359;SDS011;3720;48.274;7.796;2022-09-13T15:12:47;3.25;;;1.23;;
7359;SDS011;3720;48.274;7.796;2022-09-13T15:15:29;6.88;;;1.38;;
7359;SDS011;3720;48.274;7.796;2022-09-13T15:18:20;2.53;;;1.20;;
7359;SDS011;3720;48.274;7.796;2022-09-13T15:20:55;3.80;;;1.33;;
7359;SDS011;3720;48.274;7.796;2022-09-13T15:23:29;1.95;;;1.10;;
7359;SDS011;3720;48.274;7.796;2022-09-13T15:26:04;3.78;;;1.30;;
7359;SDS011;3720;48.274;7.796;2022-09-13T15:28:44;3.55;;;1.33;;
7359;SDS011;3720;48.274;7.796;2022-09-13T15:31:23;3.38;;;1.10;;
7359;SDS011;3720;48.274;7.796;2022-09-13T15:37:05;6.35;;;1.30;;
7359;SDS011;3720;48.274;7.796;2022-09-13T15:39:41;6.32;;;1.48;;
7359;SDS011;3720;48.274;7.796;2022-09-13T15:42:13;2.58;;;1.30;;
7359;SDS011;3720;48.274;7.796;2022-09-13T15:44:46;5.70;;;1.40;;
7359;SDS011;3720;48.274;7.796;2022-09-13T15:47:18;2.03;;;1.20;;
7359;SDS011;3720;48.274;7.796;2022-09-13T15:49:51;2.08;;;1.10;;
7359;SDS011;3720;48.274;7.796;2022-09-13T15:52:23;1.83;;;1.20;;
7359;SDS011;3720;48.274;7.796;2022-09-13T15:54:55;1.80;;;1.05;;
7359;SDS011;3720;48.274;7.796;2022-09-13T15:57:27;2.97;;;1.30;;
7359;SDS011;3720;48.274;7.796;2022-09-13T16:00:00;1.67;;;1.20;;
7359;SDS011;3720;48.274;7.796;2022-09-13T16:02:32;1.52;;;1.02;;
7359;SDS011;3720;48.274;7.796;2022-09-13T16:05:07;1.38;;;1.00;;
7359;SDS011;3720;48.274;7.796;2022-09-13T16:07:41;2.13;;;1.30;;
7359;SDS011;3720;48.274;7.796;2022-09-13T16:10:14;2.45;;;1.20;;
7359;SDS011;3720;48.274;7.796;2022-09-13T16:12:48;3.38;;;1.10;;
7359;SDS011;3720;48.274;7.796;2022-09-13T16:15:20;1.55;;;1.20;;
7359;SDS011;3720;48.274;7.796;2022-09-13T16:17:52;1.90;;;1.00;;
7359;SDS011;3720;48.274;7.796;2022-09-13T16:20:26;2.90;;;1.30;;
7359;SDS011;3720;48.274;7.796;2022-09-13T16:22:58;2.58;;;1.20;;
7359;SDS011;3720;48.274;7.796;2022-09-13T16:25:30;2.95;;;1.30;;
7359;SDS011;3720;48.274;7.796;2022-09-13T16:28:02;5.47;;;1.25;;
7359;SDS011;3720;48.274;7.796;2022-09-13T16:30:34;5.57;;;1.38;;
7359;SDS011;3720;48.274;7.796;2022-09-13T16:33:06;3.58;;;1.38;;
7359;SDS011;3720;48.274;7.796;2022-09-13T16:35:39;3.58;;;1.20;;
7359;SDS011;3720;48.274;7.796;2022-09-13T16:38:11;6.50;;;1.40;;
7359;SDS011;3720;48.274;7.796;2022-09-13T16:40:44;8.77;;;1.50;;
7359;SDS011;3720;48.274;7.796;2022-09-13T16:43:16;6.93;;;1.50;;
7359;SDS011;3720;48.274;7.796;2022-09-13T16:45:48;8.40;;;1.77;;
7359;SDS011;3720;48.274;7.796;2022-09-13T16:48:20;18.90;;;2.20;;
7359;SDS011;3720;48.274;7.796;2022-09-13T16:50:53;15.57;;;2.00;;
7359;SDS011;3720;48.274;7.796;2022-09-13T16:53:32;14.05;;;2.03;;
7359;SDS011;3720;48.274;7.796;2022-09-13T16:56:05;9.55;;;1.83;;
7359;SDS011;3720;48.274;7.796;2022-09-13T16:58:38;6.03;;;1.65;;
7359;SDS011;3720;48.274;7.796;2022-09-13T17:01:13;10.35;;;1.80;;
7359;SDS011;3720;48.274;7.796;2022-09-13T17:03:46;10.90;;;1.65;;
7359;SDS011;3720;48.274;7.796;2022-09-13T17:06:19;6.40;;;1.70;;
7359;SDS011;3720;48.274;7.796;2022-09-13T17:08:53;2.53;;;1.40;;
7359;SDS011;3720;48.274;7.796;2022-09-13T17:11:30;3.92;;;1.60;;
7359;SDS011;3720;48.274;7.796;2022-09-13T17:14:05;4.05;;;1.70;;
7359;SDS011;3720;48.274;7.796;2022-09-13T17:16:40;5.25;;;1.60;;